sensor_id;sensor_type;location;lat;lon;timestamp;pressure;altitude;pressure_sealevel;temperature;humidity
56334;BME280;42240;53.626;55.886;2023-05-11T00:01:29;77150.06;;;-145.10;100.00
56334;BME280;42240;53.626;55.886;2023-05-11T00:03:02;77146.09;;;-145.10;100.00
56334;BME280;42240;53.626;55.886;2023-05-11T00:04:36;77156.00;;;-145.10;100.00
56334;BME280;42240;53.626;55.886;2023-05-11T00:06:09;77169.84;;;-145.10;100.00
56334;BME280;42240;53.626;55.886;2023-05-11T00:07:42;77169.84;;;-145.10;100.00
56334;BME280;42240;53.626;55.886;2023-05-11T00:09:16;77163.91;;;-145.10;100.00
56334;BME280;42240;53.626;55.886;2023-05-11T00:10:49;77165.88;;;-145.10;100.00
56334;BME280;42240;53.626;55.886;2023-05-11T00:12:22;77179.72;;;-145.10;100.00
56334;BME280;42240;53.626;55.886;2023-05-11T00:13:56;77183.69;;;-145.10;100.00
56334;BME280;42240;53.626;55.886;2023-05-11T00:15:29;77183.69;;;-145.10;100.00
56334;BME280;42240;53.626;55.886;2023-05-11T00:17:03;77189.59;;;-145.10;100.00
56334;BME280;42240;53.626;55.886;2023-05-11T00:18:36;77193.56;;;-145.10;100.00
56334;BME280;42240;53.626;55.886;2023-05-11T00:20:10;77211.38;;;-145.10;100.00
56334;BME280;42240;53.626;55.886;2023-05-11T00:21:43;77225.22;;;-145.10;100.00
56334;BME280;42240;53.626;55.886;2023-05-11T00:23:16;77229.16;;;-145.10;100.00
56334;BME280;42240;53.626;55.886;2023-05-11T00:24:49;77235.09;;;-145.10;100.00
56334;BME280;42240;53.626;55.886;2023-05-11T00:26:23;77229.16;;;-145.10;100.00
56334;BME280;42240;53.626;55.886;2023-05-11T00:27:56;77231.16;;;-145.10;100.00
56334;BME280;42240;53.626;55.886;2023-05-11T00:29:30;77225.22;;;-145.10;100.00
56334;BME280;42240;53.626;55.886;2023-05-11T00:31:04;77229.16;;;-145.10;100.00
56334;BME280;42240;53.626;55.886;2023-05-11T00:32:37;77233.13;;;-145.10;100.00
56334;BME280;42240;53.626;55.886;2023-05-11T00:34:11;77239.06;;;-145.10;100.00
56334;BME280;42240;53.626;55.886;2023-05-11T00:35:44;77241.03;;;-145.10;100.00
56334;BME280;42240;53.626;55.886;2023-05-11T00:37:17;77239.06;;;-145.10;100.00
56334;BME280;42240;53.626;55.886;2023-05-11T00:38:50;77241.03;;;-145.10;100.00
56334;BME280;42240;53.626;55.886;2023-05-11T00:40:25;77237.06;;;-145.10;100.00
56334;BME280;42240;53.626;55.886;2023-05-11T00:41:59;77243.00;;;-145.10;100.00
56334;BME280;42240;53.626;55.886;2023-05-11T00:43:33;77268.72;;;-145.10;100.00
56334;BME280;42240;53.626;55.886;2023-05-11T00:45:06;77248.94;;;-145.10;100.00
56334;BME280;42240;53.626;55.886;2023-05-11T00:46:40;77233.13;;;-145.10;100.00
56334;BME280;42240;53.626;55.886;2023-05-11T00:48:15;77223.22;;;-145.10;100.00
56334;BME280;42240;53.626;55.886;2023-05-11T00:49:49;77211.38;;;-145.10;100.00
56334;BME280;42240;53.626;55.886;2023-05-11T00:51:24;77199.50;;;-145.10;100.00
56334;BME280;42240;53.626;55.886;2023-05-11T00:52:58;77248.94;;;-145.10;100.00
56334;BME280;42240;53.626;55.886;2023-05-11T00:54:32;77173.78;;;-145.10;100.00
56334;BME280;42240;53.626;55.886;2023-05-11T00:56:05;77157.97;;;-145.10;100.00
56334;BME280;42240;53.626;55.886;2023-05-11T00:57:39;77074.91;;;-145.10;100.00
56334;BME280;42240;53.626;55.886;2023-05-11T00:59:12;77003.72;;;-145.10;100.00
56334;BME280;42240;53.626;55.886;2023-05-11T01:00:46;76948.34;;;-145.10;100.00
56334;BME280;42240;53.626;55.886;2023-05-11T01:02:20;76904.84;;;-145.10;100.00
56334;BME280;42240;53.626;55.886;2023-05-11T01:03:55;76841.56;;;-145.10;100.00
56334;BME280;42240;53.626;55.886;2023-05-11T01:05:40;76786.19;;;-145.10;100.00
56334;BME280;42240;53.626;55.886;2023-05-11T01:08:17;76764.44;;;-145.10;100.00
56334;BME280;42240;53.626;55.886;2023-05-11T01:11:40;76715.00;;;-145.10;100.00
56334;BME280;42240;53.626;55.886;2023-05-11T01:13:27;76738.72;;;-145.10;100.00
56334;BME280;42240;53.626;55.886;2023-05-11T01:15:23;76752.56;;;-145.10;100.00
56334;BME280;42240;53.626;55.886;2023-05-11T01:17:02;76671.50;;;-145.10;100.00
56334;BME280;42240;53.626;55.886;2023-05-11T01:18:50;76612.16;;;-145.10;100.00
56334;BME280;42240;53.626;55.886;2023-05-11T01:20:26;76544.94;;;-145.10;100.00
56334;BME280;42240;53.626;55.886;2023-05-11T01:28:22;76311.63;;;-145.10;95.44
56334;BME280;42240;53.626;55.886;2023-05-11T01:31:36;76252.28;;;-145.10;90.19
56334;BME280;42240;53.626;55.886;2023-05-11T01:33:13;76204.84;;;-145.10;87.97
56334;BME280;42240;53.626;55.886;2023-05-11T01:34:56;76179.13;;;-145.10;85.28
56334;BME280;42240;53.626;55.886;2023-05-11T01:36:35;76165.31;;;-145.10;83.20
56334;BME280;42240;53.626;55.886;2023-05-11T01:38:12;76145.53;;;-145.10;81.62
56334;BME280;42240;53.626;55.886;2023-05-11T01:39:55;76113.91;;;-145.10;81.17
56334;BME280;42240;53.626;55.886;2023-05-11T01:41:31;76046.66;;;-145.10;77.66
56334;BME280;42240;53.626;55.886;2023-05-11T01:43:12;76020.97;;;-145.10;74.12
56334;BME280;42240;53.626;55.886;2023-05-11T01:44:49;75987.34;;;-145.10;72.44
56334;BME280;42240;53.626;55.886;2023-05-11T01:46:29;75985.38;;;-145.10;69.92
56334;BME280;42240;53.626;55.886;2023-05-11T01:48:10;75973.50;;;-145.10;68.92
56334;BME280;42240;53.626;55.886;2023-05-11T01:49:46;75963.63;;;-145.10;66.46
56334;BME280;42240;53.626;55.886;2023-05-11T01:51:19;75872.69;;;-145.10;65.18
56334;BME280;42240;53.626;55.886;2023-05-11T01:52:55;75852.91;;;-145.10;61.71
56334;BME280;42240;53.626;55.886;2023-05-11T01:54:29;75829.19;;;-145.10;60.10
56334;BME280;42240;53.626;55.886;2023-05-11T01:56:05;75793.59;;;-145.10;57.41
56334;BME280;42240;53.626;55.886;2023-05-11T01:57:39;75773.84;;;-145.10;55.68
56334;BME280;42240;53.626;55.886;2023-05-11T01:59:13;75761.97;;;-145.10;54.43
56334;BME280;42240;53.626;55.886;2023-05-11T02:00:47;75728.38;;;-145.10;53.47
56334;BME280;42240;53.626;55.886;2023-05-11T02:02:22;75698.72;;;-145.10;52.16
56334;BME280;42240;53.626;55.886;2023-05-11T02:03:58;75663.13;;;-145.10;49.29
56334;BME280;42240;53.626;55.886;2023-05-11T02:05:34;75678.94;;;-145.10;49.11
56334;BME280;42240;53.626;55.886;2023-05-11T02:07:10;75605.78;;;-145.10;48.22
56334;BME280;42240;53.626;55.886;2023-05-11T02:08:44;75584.06;;;-145.10;47.63
56334;BME280;42240;53.626;55.886;2023-05-11T02:10:19;75548.47;;;-145.10;45.71
56334;BME280;42240;53.626;55.886;2023-05-11T02:11:53;75491.13;;;-145.10;45.33
56334;BME280;42240;53.626;55.886;2023-05-11T02:13:29;75463.47;;;-145.10;44.55
56334;BME280;42240;53.626;55.886;2023-05-11T02:15:06;75419.97;;;-145.10;44.13
56334;BME280;42240;53.626;55.886;2023-05-11T02:16:41;75406.13;;;-145.10;43.17
56334;BME280;42240;53.626;55.886;2023-05-11T02:18:15;75386.38;;;-145.10;42.44
56334;BME280;42240;53.626;55.886;2023-05-11T02:19:49;75354.72;;;-145.10;41.95
56334;BME280;42240;53.626;55.886;2023-05-11T02:21:26;75315.19;;;-145.10;41.58
56334;BME280;42240;53.626;55.886;2023-05-11T02:23:00;75315.19;;;-145.10;40.97
56334;BME280;42240;53.626;55.886;2023-05-11T02:24:34;75285.53;;;-145.10;40.96
56334;BME280;42240;53.626;55.886;2023-05-11T02:26:09;75216.38;;;-145.10;40.35
56334;BME280;42240;53.626;55.886;2023-05-11T02:27:44;75224.28;;;-145.10;39.78
56334;BME280;42240;53.626;55.886;2023-05-11T02:29:18;75236.13;;;-145.10;39.52
56334;BME280;42240;53.626;55.886;2023-05-11T02:30:54;75228.22;;;-145.10;39.29
56334;BME280;42240;53.626;55.886;2023-05-11T02:32:32;75216.38;;;-145.10;39.14
56334;BME280;42240;53.626;55.886;2023-05-11T02:34:17;75261.81;;;-145.10;39.20
56334;BME280;42240;53.626;55.886;2023-05-11T02:35:55;75176.81;;;-145.10;39.67
56334;BME280;42240;53.626;55.886;2023-05-11T02:37:33;75119.50;;;-145.10;38.07
56334;BME280;42240;53.626;55.886;2023-05-11T02:39:15;75095.78;;;-145.10;37.64
56334;BME280;42240;53.626;55.886;2023-05-11T02:40:54;75101.72;;;-145.10;37.73
56334;BME280;42240;53.626;55.886;2023-05-11T02:42:33;75085.91;;;-145.10;37.67
56334;BME280;42240;53.626;55.886;2023-05-11T02:44:14;75099.75;;;-145.10;37.89
56334;BME280;42240;53.626;55.886;2023-05-11T02:45:51;75079.97;;;-145.10;37.53
56334;BME280;42240;53.626;55.886;2023-05-11T02:47:37;75050.31;;;-145.10;37.28
56334;BME280;42240;53.626;55.886;2023-05-11T02:49:11;75066.13;;;-145.10;36.55
56334;BME280;42240;53.626;55.886;2023-05-11T02:50:48;75153.09;;;-145.10;36.87
56334;BME280;42240;53.626;55.886;2023-05-11T02:52:24;75068.09;;;-145.10;37.29
56334;BME280;42240;53.626;55.886;2023-05-11T02:54:00;75026.59;;;-145.10;36.81
56334;BME280;42240;53.626;55.886;2023-05-11T02:55:36;74979.16;;;-145.10;36.16
56334;BME280;42240;53.626;55.886;2023-05-11T02:57:10;74933.69;;;-145.10;35.46
56334;BME280;42240;53.626;55.886;2023-05-11T02:58:44;74935.69;;;-145.10;35.42
56334;BME280;42240;53.626;55.886;2023-05-11T03:00:22;74888.25;;;-145.10;35.25
56334;BME280;42240;53.626;55.886;2023-05-11T03:01:56;74888.25;;;-145.10;34.77
56334;BME280;42240;53.626;55.886;2023-05-11T03:03:30;74911.97;;;-145.10;35.13
56334;BME280;42240;53.626;55.886;2023-05-11T03:05:04;74935.69;;;-145.10;34.74
56334;BME280;42240;53.626;55.886;2023-05-11T03:06:37;74856.63;;;-145.10;34.34
56334;BME280;42240;53.626;55.886;2023-05-11T03:08:12;74890.22;;;-145.10;34.73
56334;BME280;42240;53.626;55.886;2023-05-11T03:09:46;74825.00;;;-145.10;33.70
56334;BME280;42240;53.626;55.886;2023-05-11T03:11:20;74832.91;;;-145.10;33.79
56334;BME280;42240;53.626;55.886;2023-05-11T03:12:54;74872.44;;;-145.10;34.30
56334;BME280;42240;53.626;55.886;2023-05-11T03:14:31;74793.38;;;-145.10;33.94
56334;BME280;42240;53.626;55.886;2023-05-11T03:16:06;74813.13;;;-145.10;33.40
56334;BME280;42240;53.626;55.886;2023-05-11T03:17:41;74722.22;;;-145.10;33.50
56334;BME280;42240;53.626;55.886;2023-05-11T03:19:18;74704.44;;;-145.10;33.29
56334;BME280;42240;53.626;55.886;2023-05-11T03:20:51;74698.50;;;-145.10;32.65
56334;BME280;42240;53.626;55.886;2023-05-11T03:22:26;74696.53;;;-145.10;32.55
56334;BME280;42240;53.626;55.886;2023-05-11T03:24:00;74655.00;;;-145.10;32.19
56334;BME280;42240;53.626;55.886;2023-05-11T03:25:37;74702.44;;;-145.10;32.11
56334;BME280;42240;53.626;55.886;2023-05-11T03:27:10;74666.88;;;-145.10;31.98
56334;BME280;42240;53.626;55.886;2023-05-11T03:28:47;74658.97;;;-145.10;31.40
56334;BME280;42240;53.626;55.886;2023-05-11T03:30:22;74702.44;;;-145.10;32.11
56334;BME280;42240;53.626;55.886;2023-05-11T03:31:59;74645.13;;;-145.10;31.82
56334;BME280;42240;53.626;55.886;2023-05-11T03:33:36;74556.19;;;-145.10;31.71
56334;BME280;42240;53.626;55.886;2023-05-11T03:35:11;74534.44;;;-145.10;31.64
56334;BME280;42240;53.626;55.886;2023-05-11T03:36:47;74532.47;;;-145.10;30.89
56334;BME280;42240;53.626;55.886;2023-05-11T03:38:22;74500.84;;;-145.10;30.80
56334;BME280;42240;53.626;55.886;2023-05-11T03:39:58;74510.75;;;-145.10;30.31
56334;BME280;42240;53.626;55.886;2023-05-11T03:41:38;74587.81;;;-145.10;30.86
56334;BME280;42240;53.626;55.886;2023-05-11T03:43:16;74528.53;;;-145.10;30.53
56334;BME280;42240;53.626;55.886;2023-05-11T03:44:54;74566.06;;;-145.10;30.98
56334;BME280;42240;53.626;55.886;2023-05-11T03:46:31;74564.09;;;-145.10;30.77
56334;BME280;42240;53.626;55.886;2023-05-11T03:48:10;74633.28;;;-145.10;31.07
56334;BME280;42240;53.626;55.886;2023-05-11T03:49:47;74625.38;;;-145.10;31.10
56334;BME280;42240;53.626;55.886;2023-05-11T03:51:20;74579.91;;;-145.10;30.93
56334;BME280;42240;53.626;55.886;2023-05-11T03:52:54;74489.00;;;-145.10;30.36
56334;BME280;42240;53.626;55.886;2023-05-11T03:54:29;74605.59;;;-145.10;30.05
56334;BME280;42240;53.626;55.886;2023-05-11T03:56:04;74471.22;;;-145.10;29.91
56334;BME280;42240;53.626;55.886;2023-05-11T03:57:39;74494.94;;;-145.10;30.23
56334;BME280;42240;53.626;55.886;2023-05-11T03:59:15;74449.47;;;-145.10;29.66
56334;BME280;42240;53.626;55.886;2023-05-11T04:00:49;74477.13;;;-145.10;29.47
56334;BME280;42240;53.626;55.886;2023-05-11T04:02:23;74568.06;;;-145.10;29.28
56334;BME280;42240;53.626;55.886;2023-05-11T04:03:56;74593.75;;;-145.10;29.70
56334;BME280;42240;53.626;55.886;2023-05-11T04:05:30;74512.72;;;-145.10;29.76
56334;BME280;42240;53.626;55.886;2023-05-11T04:07:06;74516.66;;;-145.10;29.28
56334;BME280;42240;53.626;55.886;2023-05-11T04:08:40;74544.34;;;-145.10;29.70
56334;BME280;42240;53.626;55.886;2023-05-11T04:10:13;74585.84;;;-145.10;30.06
56334;BME280;42240;53.626;55.886;2023-05-11T04:11:46;74560.16;;;-145.10;29.60
56334;BME280;42240;53.626;55.886;2023-05-11T04:13:19;74627.34;;;-145.10;29.86
56334;BME280;42240;53.626;55.886;2023-05-11T04:14:53;74615.47;;;-145.10;30.17
56334;BME280;42240;53.626;55.886;2023-05-11T04:16:26;74564.09;;;-145.10;29.58
56334;BME280;42240;53.626;55.886;2023-05-11T04:17:59;74635.25;;;-145.10;30.29
56334;BME280;42240;53.626;55.886;2023-05-11T04:19:32;74643.16;;;-145.10;30.17
56334;BME280;42240;53.626;55.886;2023-05-11T04:21:06;74700.47;;;-145.10;30.16
56334;BME280;42240;53.626;55.886;2023-05-11T04:22:39;74684.66;;;-145.10;30.26
56334;BME280;42240;53.626;55.886;2023-05-11T04:24:12;74647.09;;;-145.10;30.10
56334;BME280;42240;53.626;55.886;2023-05-11T04:25:46;74696.53;;;-145.10;30.21
56334;BME280;42240;53.626;55.886;2023-05-11T04:27:19;74655.00;;;-145.10;30.06
56334;BME280;42240;53.626;55.886;2023-05-11T04:28:55;74657.00;;;-145.10;30.02
56334;BME280;42240;53.626;55.886;2023-05-11T04:30:28;74573.97;;;-145.10;29.72
56334;BME280;42240;53.626;55.886;2023-05-11T04:32:01;74520.63;;;-145.10;29.32
56334;BME280;42240;53.626;55.886;2023-05-11T04:33:34;74524.56;;;-145.10;29.13
56334;BME280;42240;53.626;55.886;2023-05-11T04:35:08;74526.53;;;-145.10;27.47
56334;BME280;42240;53.626;55.886;2023-05-11T04:36:49;74471.22;;;-145.10;27.63
56334;BME280;42240;53.626;55.886;2023-05-11T04:38:23;74512.72;;;-145.10;27.39
56334;BME280;42240;53.626;55.886;2023-05-11T04:39:58;74528.53;;;-145.10;27.34
56334;BME280;42240;53.626;55.886;2023-05-11T04:41:31;74494.94;;;-145.10;27.74
56334;BME280;42240;53.626;55.886;2023-05-11T04:43:05;74560.16;;;-145.10;28.65
56334;BME280;42240;53.626;55.886;2023-05-11T04:44:38;74506.78;;;-145.10;28.41
56334;BME280;42240;53.626;55.886;2023-05-11T04:46:11;74556.19;;;-145.10;27.85
56334;BME280;42240;53.626;55.886;2023-05-11T04:47:45;74666.88;;;-145.10;28.03
56334;BME280;42240;53.626;55.886;2023-05-11T04:49:18;74664.91;;;-145.10;28.30
56334;BME280;42240;53.626;55.886;2023-05-11T04:50:55;74597.69;;;-145.10;27.92
56334;BME280;42240;53.626;55.886;2023-05-11T04:52:33;74627.34;;;-145.10;28.28
56334;BME280;42240;53.626;55.886;2023-05-11T04:54:07;74570.03;;;-145.10;28.24
56334;BME280;42240;53.626;55.886;2023-05-11T04:55:40;74538.41;;;-145.10;26.83
56334;BME280;42240;53.626;55.886;2023-05-11T04:57:13;74579.91;;;-145.10;26.60
56334;BME280;42240;53.626;55.886;2023-05-11T04:58:47;74457.38;;;-145.10;26.60
56334;BME280;42240;53.626;55.886;2023-05-11T05:00:20;74396.09;;;-145.10;26.31
56334;BME280;42240;53.626;55.886;2023-05-11T05:01:54;74398.09;;;-145.10;26.67
56334;BME280;42240;53.626;55.886;2023-05-11T05:03:29;74496.91;;;-145.10;27.24
56334;BME280;42240;53.626;55.886;2023-05-11T05:05:03;74621.41;;;-145.10;27.36
56334;BME280;42240;53.626;55.886;2023-05-11T05:06:36;74512.72;;;-145.10;27.17
56334;BME280;42240;53.626;55.886;2023-05-11T05:08:10;74597.69;;;-145.10;26.65
56334;BME280;42240;53.626;55.886;2023-05-11T05:09:43;74544.34;;;-145.10;26.69
56334;BME280;42240;53.626;55.886;2023-05-11T05:11:19;74504.81;;;-145.10;26.15
56334;BME280;42240;53.626;55.886;2023-05-11T05:12:53;74431.69;;;-145.10;26.58
56334;BME280;42240;53.626;55.886;2023-05-11T05:14:26;74376.34;;;-145.10;26.16
56334;BME280;42240;53.626;55.886;2023-05-11T05:15:59;74348.69;;;-145.10;25.83
56334;BME280;42240;53.626;55.886;2023-05-11T05:17:33;74283.47;;;-145.10;25.45
56334;BME280;42240;53.626;55.886;2023-05-11T05:19:06;74196.50;;;-145.10;25.59
56334;BME280;42240;53.626;55.886;2023-05-11T05:20:41;74220.22;;;-145.10;25.78
56334;BME280;42240;53.626;55.886;2023-05-11T05:22:15;74281.47;;;-145.10;25.09
56334;BME280;42240;53.626;55.886;2023-05-11T05:23:48;74358.56;;;-145.10;24.85
56334;BME280;42240;53.626;55.886;2023-05-11T05:25:21;74413.91;;;-145.10;24.79
56334;BME280;42240;53.626;55.886;2023-05-11T05:26:55;74421.81;;;-145.10;24.56
56334;BME280;42240;53.626;55.886;2023-05-11T05:28:28;74445.50;;;-145.10;24.83
56334;BME280;42240;53.626;55.886;2023-05-11T05:30:01;74396.09;;;-145.10;24.93
56334;BME280;42240;53.626;55.886;2023-05-11T05:31:35;74477.13;;;-145.10;25.17
56334;BME280;42240;53.626;55.886;2023-05-11T05:33:08;74496.91;;;-145.10;25.47
56334;BME280;42240;53.626;55.886;2023-05-11T05:34:43;74366.47;;;-145.10;25.11
56334;BME280;42240;53.626;55.886;2023-05-11T05:36:19;74435.63;;;-145.10;24.93
56334;BME280;42240;53.626;55.886;2023-05-11T05:37:52;74437.63;;;-145.10;25.42
56334;BME280;42240;53.626;55.886;2023-05-11T05:39:26;74504.81;;;-145.10;24.78
56334;BME280;42240;53.626;55.886;2023-05-11T05:41:00;74554.22;;;-145.10;24.54
56334;BME280;42240;53.626;55.886;2023-05-11T05:42:38;74492.94;;;-145.10;24.71
56334;BME280;42240;53.626;55.886;2023-05-11T05:44:13;74413.91;;;-145.10;24.65
56334;BME280;42240;53.626;55.886;2023-05-11T05:45:47;74394.13;;;-145.10;24.84
56334;BME280;42240;53.626;55.886;2023-05-11T05:47:20;74348.69;;;-145.10;24.93
56334;BME280;42240;53.626;55.886;2023-05-11T05:48:54;74374.38;;;-145.10;24.85
56334;BME280;42240;53.626;55.886;2023-05-11T05:50:28;74319.03;;;-145.10;24.51
56334;BME280;42240;53.626;55.886;2023-05-11T05:52:01;74485.03;;;-145.10;25.04
56334;BME280;42240;53.626;55.886;2023-05-11T05:53:35;74473.19;;;-145.10;25.15
56334;BME280;42240;53.626;55.886;2023-05-11T05:55:09;74457.38;;;-145.10;24.96
56334;BME280;42240;53.626;55.886;2023-05-11T05:56:45;74390.19;;;-145.10;25.03
56334;BME280;42240;53.626;55.886;2023-05-11T05:58:19;74516.66;;;-145.10;25.16
56334;BME280;42240;53.626;55.886;2023-05-11T05:59:54;74475.16;;;-145.10;25.49
56334;BME280;42240;53.626;55.886;2023-05-11T06:01:27;74431.69;;;-145.10;25.25
56334;BME280;42240;53.626;55.886;2023-05-11T06:03:00;74356.59;;;-145.10;25.32
56334;BME280;42240;53.626;55.886;2023-05-11T06:04:34;74358.56;;;-145.10;24.87
56334;BME280;42240;53.626;55.886;2023-05-11T06:06:08;74277.53;;;-145.10;24.69
56334;BME280;42240;53.626;55.886;2023-05-11T06:07:42;74291.38;;;-145.10;24.66
56334;BME280;42240;53.626;55.886;2023-05-11T06:09:25;74439.59;;;-145.10;25.09
56334;BME280;42240;53.626;55.886;2023-05-11T06:10:59;74313.09;;;-145.10;25.23
56334;BME280;42240;53.626;55.886;2023-05-11T06:12:34;74441.56;;;-145.10;24.90
56334;BME280;42240;53.626;55.886;2023-05-11T06:14:07;74465.28;;;-145.10;25.47
56334;BME280;42240;53.626;55.886;2023-05-11T06:15:41;74552.25;;;-145.10;25.58
56334;BME280;42240;53.626;55.886;2023-05-11T06:17:29;74481.09;;;-145.10;25.33
56334;BME280;42240;53.626;55.886;2023-05-11T06:19:02;74643.16;;;-145.10;25.08
56334;BME280;42240;53.626;55.886;2023-05-11T06:20:36;74745.94;;;-145.10;26.07
56334;BME280;42240;53.626;55.886;2023-05-11T06:22:10;74635.25;;;-145.10;25.98
56334;BME280;42240;53.626;55.886;2023-05-11T06:23:43;74575.97;;;-145.10;25.94
56334;BME280;42240;53.626;55.886;2023-05-11T06:25:17;74722.22;;;-145.10;26.46
56334;BME280;42240;53.626;55.886;2023-05-11T06:26:52;74797.31;;;-145.10;26.73
56334;BME280;42240;53.626;55.886;2023-05-11T06:28:26;74801.28;;;-145.10;26.86
56334;BME280;42240;53.626;55.886;2023-05-11T06:30:03;74749.88;;;-145.10;26.81
56334;BME280;42240;53.626;55.886;2023-05-11T06:31:39;74710.34;;;-145.10;26.64
56334;BME280;42240;53.626;55.886;2023-05-11T06:33:15;74791.38;;;-145.10;27.15
56334;BME280;42240;53.626;55.886;2023-05-11T06:34:50;74906.03;;;-145.10;27.39
56334;BME280;42240;53.626;55.886;2023-05-11T06:36:23;74937.66;;;-145.10;27.84
56334;BME280;42240;53.626;55.886;2023-05-11T06:37:57;74789.41;;;-145.10;27.36
56334;BME280;42240;53.626;55.886;2023-05-11T06:39:33;74825.00;;;-145.10;27.63
56334;BME280;42240;53.626;55.886;2023-05-11T06:41:06;74911.97;;;-145.10;26.95
56334;BME280;42240;53.626;55.886;2023-05-11T06:42:43;75006.84;;;-145.10;27.66
56334;BME280;42240;53.626;55.886;2023-05-11T06:44:16;74979.16;;;-145.10;27.36
56334;BME280;42240;53.626;55.886;2023-05-11T06:45:50;75042.41;;;-145.10;27.44
56334;BME280;42240;53.626;55.886;2023-05-11T06:47:24;75089.84;;;-145.10;27.33
56334;BME280;42240;53.626;55.886;2023-05-11T06:48:58;75093.81;;;-145.10;27.72
56334;BME280;42240;53.626;55.886;2023-05-11T06:50:32;75038.47;;;-145.10;28.17
56334;BME280;42240;53.626;55.886;2023-05-11T06:52:06;75076.00;;;-145.10;28.84
56334;BME280;42240;53.626;55.886;2023-05-11T06:53:39;75078.00;;;-145.10;29.30
56334;BME280;42240;53.626;55.886;2023-05-11T06:55:13;75145.19;;;-145.10;29.40
56334;BME280;42240;53.626;55.886;2023-05-11T06:56:47;75143.22;;;-145.10;29.61
56334;BME280;42240;53.626;55.886;2023-05-11T06:58:21;75119.50;;;-145.10;29.28
56334;BME280;42240;53.626;55.886;2023-05-11T06:59:55;75079.97;;;-145.10;29.07
56334;BME280;42240;53.626;55.886;2023-05-11T07:01:28;75121.47;;;-145.10;28.80
56334;BME280;42240;53.626;55.886;2023-05-11T07:03:01;75121.47;;;-145.10;28.59
56334;BME280;42240;53.626;55.886;2023-05-11T07:04:35;75204.50;;;-145.10;29.26
56334;BME280;42240;53.626;55.886;2023-05-11T07:06:09;75168.91;;;-145.10;29.31
56334;BME280;42240;53.626;55.886;2023-05-11T07:07:43;75216.38;;;-145.10;29.13
56334;BME280;42240;53.626;55.886;2023-05-11T07:09:20;75202.53;;;-145.10;29.39
56334;BME280;42240;53.626;55.886;2023-05-11T07:10:53;75178.81;;;-145.10;29.38
56334;BME280;42240;53.626;55.886;2023-05-11T07:12:26;75101.72;;;-145.10;28.84
56334;BME280;42240;53.626;55.886;2023-05-11T07:13:59;75139.28;;;-145.10;29.01
56334;BME280;42240;53.626;55.886;2023-05-11T07:15:33;75131.38;;;-145.10;29.50
56334;BME280;42240;53.626;55.886;2023-05-11T07:17:06;75125.44;;;-145.10;29.41
56334;BME280;42240;53.626;55.886;2023-05-11T07:18:40;75153.09;;;-145.10;29.54
56334;BME280;42240;53.626;55.886;2023-05-11T07:20:13;75111.59;;;-145.10;29.25
56334;BME280;42240;53.626;55.886;2023-05-11T07:21:46;75123.47;;;-145.10;29.12
56334;BME280;42240;53.626;55.886;2023-05-11T07:23:20;75145.19;;;-145.10;29.05
56334;BME280;42240;53.626;55.886;2023-05-11T07:24:53;75113.56;;;-145.10;28.74
56334;BME280;42240;53.626;55.886;2023-05-11T07:26:26;75117.53;;;-145.10;28.62
56334;BME280;42240;53.626;55.886;2023-05-11T07:28:00;75083.94;;;-145.10;28.49
56334;BME280;42240;53.626;55.886;2023-05-11T07:29:33;75022.66;;;-145.10;28.58
56334;BME280;42240;53.626;55.886;2023-05-11T07:31:06;75026.59;;;-145.10;28.29
56334;BME280;42240;53.626;55.886;2023-05-11T07:32:40;74955.44;;;-145.10;27.99
56334;BME280;42240;53.626;55.886;2023-05-11T07:34:13;74985.09;;;-145.10;27.77
56334;BME280;42240;53.626;55.886;2023-05-11T07:35:46;75062.19;;;-145.10;28.47
56334;BME280;42240;53.626;55.886;2023-05-11T07:37:20;75133.34;;;-145.10;28.88
56334;BME280;42240;53.626;55.886;2023-05-11T07:38:53;75097.75;;;-145.10;29.02
56334;BME280;42240;53.626;55.886;2023-05-11T07:40:27;75050.31;;;-145.10;29.03
56334;BME280;42240;53.626;55.886;2023-05-11T07:42:06;75070.09;;;-145.10;29.01
56334;BME280;42240;53.626;55.886;2023-05-11T07:43:40;75034.50;;;-145.10;29.10
56334;BME280;42240;53.626;55.886;2023-05-11T07:45:13;75032.53;;;-145.10;28.11
56334;BME280;42240;53.626;55.886;2023-05-11T07:46:46;75014.75;;;-145.10;27.93
56334;BME280;42240;53.626;55.886;2023-05-11T07:48:20;75046.38;;;-145.10;27.20
56334;BME280;42240;53.626;55.886;2023-05-11T07:49:53;75034.50;;;-145.10;27.27
56334;BME280;42240;53.626;55.886;2023-05-11T07:51:27;75115.56;;;-145.10;27.89
56334;BME280;42240;53.626;55.886;2023-05-11T07:53:00;75070.09;;;-145.10;27.89
56334;BME280;42240;53.626;55.886;2023-05-11T07:54:34;75081.94;;;-145.10;28.05
56334;BME280;42240;53.626;55.886;2023-05-11T07:56:07;75093.81;;;-145.10;28.05
56334;BME280;42240;53.626;55.886;2023-05-11T07:57:40;75038.47;;;-145.10;27.88
56334;BME280;42240;53.626;55.886;2023-05-11T07:59:14;75010.78;;;-145.10;27.82
56334;BME280;42240;53.626;55.886;2023-05-11T08:00:47;75040.44;;;-145.10;27.50
56334;BME280;42240;53.626;55.886;2023-05-11T08:02:21;75078.00;;;-145.10;27.84
56334;BME280;42240;53.626;55.886;2023-05-11T08:03:54;75081.94;;;-145.10;28.01
56334;BME280;42240;53.626;55.886;2023-05-11T08:05:29;75113.56;;;-145.10;27.61
56334;BME280;42240;53.626;55.886;2023-05-11T08:07:04;75101.72;;;-145.10;27.93
56334;BME280;42240;53.626;55.886;2023-05-11T08:08:38;75085.91;;;-145.10;28.14
56334;BME280;42240;53.626;55.886;2023-05-11T08:10:11;75121.47;;;-145.10;28.19
56334;BME280;42240;53.626;55.886;2023-05-11T08:11:45;75078.00;;;-145.10;27.93
56334;BME280;42240;53.626;55.886;2023-05-11T08:13:18;75078.00;;;-145.10;28.11